Time;durP1;ratioP1;P1;durP2;ratioP2;P2;SDS_P1;SDS_P2;PMS_P1;PMS_P2;Temp;Humidity;BMP_temperature;BMP_pressure;BME280_temperature;BME280_humidity;BME280_pressure;Samples;Min_cycle;Max_cycle;Signal;HPM_P1;HPM_P2
2023/07/06 00:01:50;;;;;;;2.40;1.52;;;;;;;19.91;49.37;100213.47;10352429;28;20049;-62
2023/07/06 00:06:51;;;;;;;3.47;1.92;;;;;;;19.88;49.48;100205.75;10356302;28;20827;-61
2023/07/06 00:11:53;;;;;;;1.65;1.10;;;;;;;19.87;49.48;100201.34;10354428;28;20132;-61
2023/07/06 00:17:12;;;;;;;1.67;1.27;;;;;;;19.85;49.81;100206.13;10360166;28;20060;-60
2023/07/06 00:22:14;;;;;;;3.58;1.30;;;;;;;19.84;50.28;100199.03;10351550;28;20677;-62
2023/07/06 00:27:16;;;;;;;2.97;1.40;;;;;;;19.85;50.34;100208.81;10368010;28;20491;-61
2023/07/06 00:32:26;;;;;;;4.07;1.83;;;;;;;19.83;50.23;100211.69;10355688;28;20064;-60
2023/07/06 00:37:29;;;;;;;2.63;1.42;;;;;;;19.86;50.47;100214.03;10353660;28;20141;-61
2023/07/06 00:42:30;;;;;;;3.10;1.10;;;;;;;19.88;50.94;100205.75;10354906;28;20042;-62
2023/07/06 00:47:48;;;;;;;2.72;1.38;;;;;;;19.84;51.05;100199.03;10353979;28;20054;-61
2023/07/06 00:52:58;;;;;;;2.00;1.20;;;;;;;19.86;51.11;100202.38;10361337;28;20041;-60
2023/07/06 00:58:07;;;;;;;2.80;1.60;;;;;;;19.84;51.06;100201.72;10354002;28;20053;-64
2023/07/06 01:03:09;;;;;;;3.22;1.65;;;;;;;19.81;50.79;100212.91;10357812;28;20046;-63
2023/07/06 01:08:15;;;;;;;2.45;1.73;;;;;;;19.52;50.96;100172.16;10354795;28;20199;-63
2023/07/06 01:13:19;;;;;;;3.80;1.60;;;;;;;19.62;51.76;100198.88;10357926;28;20424;-62
2023/07/06 01:18:47;;;;;;;2.47;1.60;;;;;;;19.59;52.53;100202.78;10366623;28;20836;-63
2023/07/06 01:24:09;;;;;;;5.18;1.70;;;;;;;19.47;52.35;100200.72;10353519;28;20038;-62
2023/07/06 01:29:36;;;;;;;3.65;1.63;;;;;;;19.47;52.56;100206.09;10354542;28;20053;-61
2023/07/06 01:34:57;;;;;;;2.78;1.50;;;;;;;19.37;52.87;100198.28;10354043;28;20052;-63
2023/07/06 01:40:01;;;;;;;3.33;1.73;;;;;;;19.33;52.79;100205.06;10352716;28;20046;-62
2023/07/06 01:45:19;;;;;;;3.83;1.67;;;;;;;19.25;52.97;100209.50;10352009;28;20072;-63
2023/07/06 01:50:27;;;;;;;2.42;1.70;;;;;;;19.21;53.50;100213.56;10352932;28;20116;-62
2023/07/06 01:55:37;;;;;;;3.88;1.73;;;;;;;19.07;53.53;100217.91;10353135;28;20135;-63
2023/07/06 02:00:45;;;;;;;4.13;1.83;;;;;;;18.94;54.39;100224.91;10350283;28;20058;-62
2023/07/06 02:05:47;;;;;;;4.40;1.92;;;;;;;18.88;54.79;100226.47;10354848;28;20049;-61
2023/07/06 02:10:50;;;;;;;3.65;1.80;;;;;;;18.83;55.32;100228.84;10351505;28;20049;-63
2023/07/06 02:15:51;;;;;;;3.30;2.00;;;;;;;18.81;54.68;100229.00;10358984;28;20060;-62
2023/07/06 02:20:53;;;;;;;3.28;1.75;;;;;;;18.78;55.20;100215.03;10351792;28;20208;-60
2023/07/06 02:25:55;;;;;;;3.63;2.00;;;;;;;18.86;55.61;100236.59;10349027;28;20132;-62
2023/07/06 02:30:58;;;;;;;3.83;1.85;;;;;;;18.86;55.36;100239.28;10354571;28;20045;-61
2023/07/06 02:36:00;;;;;;;4.17;1.93;;;;;;;18.75;55.50;100220.78;10353943;28;20057;-61
2023/07/06 02:41:04;;;;;;;2.35;1.60;;;;;;;18.71;55.58;100210.34;10347492;28;20058;-60
2023/07/06 02:46:06;;;;;;;3.50;2.20;;;;;;;18.76;55.62;100227.88;10350545;28;20057;-59
2023/07/06 02:51:08;;;;;;;1.80;1.48;;;;;;;18.74;55.82;100228.03;10349591;28;20050;-61
2023/07/06 02:56:10;;;;;;;3.25;2.35;;;;;;;18.71;55.69;100229.22;10353579;28;20061;-62
2023/07/06 03:01:12;;;;;;;3.90;2.00;;;;;;;18.72;55.84;100233.63;10351478;28;20944;-62
2023/07/06 03:06:17;;;;;;;3.70;1.90;;;;;;;18.68;55.82;100226.06;10354254;28;20073;-60
2023/07/06 03:11:19;;;;;;;2.90;1.75;;;;;;;18.68;55.80;100239.53;10352282;28;20049;-61
2023/07/06 03:16:21;;;;;;;3.55;2.03;;;;;;;18.64;56.21;100241.72;10360339;28;20045;-62
2023/07/06 03:21:23;;;;;;;3.03;2.05;;;;;;;18.64;56.74;100235.50;10356575;28;20049;-61
2023/07/06 03:26:25;;;;;;;3.13;2.22;;;;;;;18.55;55.88;100234.69;10361723;28;20061;-62
2023/07/06 03:31:29;;;;;;;3.92;2.17;;;;;;;18.59;56.70;100243.28;10360587;28;20133;-63
2023/07/06 03:36:33;;;;;;;3.35;1.67;;;;;;;18.53;56.76;100247.53;10358814;28;20462;-61
2023/07/06 03:41:38;;;;;;;3.75;1.98;;;;;;;18.49;57.11;100247.03;10358835;28;20125;-60
2023/07/06 03:46:40;;;;;;;3.25;1.90;;;;;;;18.48;56.66;100250.75;10357258;28;20052;-62
2023/07/06 03:51:46;;;;;;;4.97;1.95;;;;;;;18.37;56.95;100237.66;10361929;28;20716;-61
2023/07/06 03:56:48;;;;;;;5.10;2.60;;;;;;;18.46;57.11;100251.94;10361508;28;20538;-62
2023/07/06 04:01:49;;;;;;;5.97;3.17;;;;;;;18.41;57.81;100251.63;10360063;28;20142;-61
2023/07/06 04:06:52;;;;;;;3.58;2.35;;;;;;;18.43;57.04;100245.03;10356004;28;20056;-63
2023/07/06 04:11:55;;;;;;;3.70;2.33;;;;;;;18.34;57.27;100241.53;10360160;28;20495;-59
2023/07/06 04:16:56;;;;;;;4.38;1.95;;;;;;;18.36;57.71;100254.84;10357925;28;20140;-61
2023/07/06 04:21:58;;;;;;;4.03;2.30;;;;;;;18.27;58.43;100248.66;10356244;28;20087;-60
2023/07/06 04:27:00;;;;;;;4.10;2.45;;;;;;;18.34;58.21;100263.06;10359667;28;20060;-62
2023/07/06 04:32:01;;;;;;;4.18;2.05;;;;;;;18.31;58.16;100252.66;10361129;28;20132;-60
2023/07/06 04:37:02;;;;;;;3.15;2.53;;;;;;;18.38;57.99;100269.81;10358685;28;20056;-61
2023/07/06 04:42:05;;;;;;;3.58;2.15;;;;;;;18.38;58.45;100264.41;10355864;28;20116;-62
2023/07/06 04:47:08;;;;;;;5.87;3.23;;;;;;;18.38;58.70;100269.81;10360393;28;20052;-62
2023/07/06 04:52:11;;;;;;;5.88;2.13;;;;;;;18.41;59.53;100265.94;10355411;28;20056;-62
2023/07/06 04:57:16;;;;;;;4.22;2.85;;;;;;;18.45;58.44;100269.09;10360818;28;20050;-62
2023/07/06 05:02:17;;;;;;;4.05;2.78;;;;;;;18.39;58.83;100265.28;10344666;28;20531;-60
2023/07/06 05:07:19;;;;;;;4.68;2.40;;;;;;;18.37;58.25;100264.59;10342987;28;20064;-64
2023/07/06 05:12:20;;;;;;;4.68;2.63;;;;;;;18.42;58.39;100274.84;10345875;28;20045;-63
2023/07/06 05:17:22;;;;;;;4.22;3.05;;;;;;;18.36;58.16;100277.25;10351462;28;20051;-64
2023/07/06 05:22:25;;;;;;;7.53;2.55;;;;;;;18.36;58.32;100281.78;10355060;28;20060;-64
2023/07/06 05:27:28;;;;;;;3.92;2.72;;;;;;;18.41;58.20;100283.97;10347959;28;20317;-66
2023/07/06 05:32:30;;;;;;;6.20;3.00;;;;;;;18.42;58.86;100275.72;10345077;28;20140;-64
2023/07/06 05:37:33;;;;;;;2.85;2.55;;;;;;;18.60;57.99;100294.34;10347671;28;20638;-63
2023/07/06 05:42:37;;;;;;;4.32;2.42;;;;;;;18.73;57.68;100301.84;10344496;28;20049;-63
2023/07/06 05:47:39;;;;;;;4.10;2.85;;;;;;;18.75;57.24;100290.88;10350484;28;20765;-62
2023/07/06 05:52:40;;;;;;;8.00;3.00;;;;;;;18.81;56.95;100298.25;10345273;28;20601;-62
2023/07/06 05:57:43;;;;;;;6.32;2.47;;;;;;;18.91;56.83;100298.91;10354662;28;20050;-63
2023/07/06 06:02:44;;;;;;;3.40;1.88;;;;;;;18.97;55.42;100303.59;10350853;28;20065;-62
2023/07/06 06:07:46;;;;;;;3.53;1.75;;;;;;;19.01;55.27;100299.53;10349241;28;20050;-64
2023/07/06 06:12:48;;;;;;;5.03;1.88;;;;;;;19.14;54.79;100325.09;10354129;28;20562;-65
2023/07/06 06:17:50;;;;;;;5.15;1.50;;;;;;;19.13;54.45;100321.56;10341431;28;20186;-62
2023/07/06 06:22:52;;;;;;;4.82;2.08;;;;;;;19.28;54.05;100335.13;10346379;28;20112;-62
2023/07/06 06:27:53;;;;;;;6.30;2.25;;;;;;;19.33;54.52;100340.81;10351601;28;20061;-63
2023/07/06 06:32:56;;;;;;;4.57;2.15;;;;;;;19.15;53.96;100310.59;10343339;28;20507;-61
2023/07/06 06:37:58;;;;;;;3.65;1.77;;;;;;;19.43;53.87;100351.41;10346458;28;20199;-62
2023/07/06 06:43:00;;;;;;;3.15;1.98;;;;;;;19.55;53.77;100351.81;10342037;28;20068;-62
2023/07/06 06:48:02;;;;;;;3.10;2.03;;;;;;;19.55;53.42;100349.97;10337878;28;20196;-62
2023/07/06 06:53:04;;;;;;;2.90;1.60;;;;;;;19.72;53.69;100347.97;10341782;28;20304;-63
2023/07/06 06:58:05;;;;;;;3.97;1.50;;;;;;;19.70;52.21;100344.63;10341895;28;20362;-62
2023/07/06 07:03:10;;;;;;;4.20;1.50;;;;;;;19.86;51.60;100350.94;10348717;28;20072;-63
2023/07/06 07:08:11;;;;;;;3.40;1.67;;;;;;;19.94;52.29;100337.38;10349089;28;20419;-62
2023/07/06 07:13:13;;;;;;;3.08;1.40;;;;;;;20.12;51.58;100348.66;10354250;28;20115;-62
2023/07/06 07:18:15;;;;;;;6.20;1.65;;;;;;;20.29;50.71;100353.91;10351439;28;20050;-62
2023/07/06 07:23:21;;;;;;;3.78;1.15;;;;;;;20.34;50.93;100340.66;10352355;28;20335;-62
2023/07/06 07:28:23;;;;;;;2.55;1.20;;;;;;;20.47;50.10;100348.97;10355301;28;21520;-62
2023/07/06 07:33:27;;;;;;;4.03;1.00;;;;;;;20.60;47.98;100350.19;10352480;28;20054;-61
2023/07/06 07:38:29;;;;;;;3.85;1.30;;;;;;;20.58;46.94;100344.13;10352762;28;20045;-61
2023/07/06 07:43:32;;;;;;;1.83;1.02;;;;;;;20.65;48.02;100347.75;10350830;28;21973;-62
2023/07/06 07:48:38;;;;;;;2.53;1.37;;;;;;;20.80;46.30;100337.78;10353118;28;20138;-61
2023/07/06 07:53:40;;;;;;;2.05;0.85;;;;;;;20.82;45.00;100356.53;10352163;28;20059;-61
2023/07/06 07:58:45;;;;;;;2.90;1.00;;;;;;;21.00;44.59;100345.31;10356235;28;20574;-62
2023/07/06 08:03:47;;;;;;;0.80;0.65;;;;;;;21.03;44.55;100339.53;10370990;28;20191;-63
2023/07/06 08:08:50;;;;;;;3.75;1.02;;;;;;;21.14;43.56;100322.81;10356017;28;20069;-63
2023/07/06 08:13:53;;;;;;;2.35;0.70;;;;;;;21.25;43.33;100347.69;10350747;28;20057;-65
2023/07/06 08:18:56;;;;;;;1.30;0.55;;;;;;;21.38;40.89;100350.56;10349375;28;20058;-62
2023/07/06 08:24:17;;;;;;;1.33;0.45;;;;;;;21.64;40.64;100338.34;10351022;28;20053;-63
2023/07/06 08:29:18;;;;;;;1.50;0.50;;;;;;;21.70;39.92;100334.84;10353244;28;20061;-61
2023/07/06 08:34:20;;;;;;;2.17;0.70;;;;;;;21.80;38.70;100335.34;10349868;28;20136;-62
2023/07/06 08:39:22;;;;;;;1.42;0.60;;;;;;;21.87;37.20;100336.25;10349024;28;20594;-62
2023/07/06 08:44:24;;;;;;;1.75;0.60;;;;;;;22.02;36.88;100351.56;10354409;28;20059;-63
2023/07/06 08:49:32;;;;;;;1.02;0.55;;;;;;;22.09;34.83;100335.38;10345649;28;20115;-62
2023/07/06 08:54:36;;;;;;;1.63;0.50;;;;;;;22.00;35.08;100340.09;10347345;28;20118;-64
2023/07/06 08:59:41;;;;;;;1.00;0.50;;;;;;;21.88;35.03;100332.50;10349816;28;20462;-62
2023/07/06 09:04:46;;;;;;;1.90;0.52;;;;;;;22.23;34.13;100345.25;10350244;28;20475;-62
2023/07/06 09:09:48;;;;;;;2.50;0.50;;;;;;;22.24;34.42;100349.66;10348143;28;20562;-63
2023/07/06 09:14:52;;;;;;;2.08;0.80;;;;;;;22.40;34.06;100351.28;10352706;28;20106;-63
2023/07/06 09:19:54;;;;;;;1.10;0.70;;;;;;;22.49;34.08;100352.78;10344714;28;20038;-63
2023/07/06 09:25:01;;;;;;;2.47;0.80;;;;;;;22.60;33.21;100357.63;10348082;28;20148;-63
2023/07/06 09:30:06;;;;;;;1.13;0.55;;;;;;;22.43;32.68;100334.59;10353025;28;20076;-63
2023/07/06 09:35:16;;;;;;;0.93;0.50;;;;;;;22.79;33.41;100344.38;10350250;28;20051;-63
2023/07/06 09:40:18;;;;;;;2.15;0.45;;;;;;;23.06;33.47;100349.91;10346008;28;20975;-62
2023/07/06 09:45:25;;;;;;;1.17;0.75;;;;;;;23.32;33.22;100349.19;10349776;28;20045;-61
2023/07/06 09:50:35;;;;;;;3.28;0.43;;;;;;;23.48;31.77;100326.25;10348699;28;20609;-62
2023/07/06 09:55:37;;;;;;;1.17;0.73;;;;;;;23.73;32.63;100341.94;10347964;28;20053;-62
2023/07/06 10:00:44;;;;;;;2.67;0.73;;;;;;;23.88;32.06;100341.75;10345421;28;20057;-63
2023/07/06 10:06:09;;;;;;;0.93;0.45;;;;;;;24.10;31.88;100334.22;10348867;28;20045;-63
2023/07/06 10:11:25;;;;;;;1.65;0.60;;;;;;;24.30;31.28;100328.75;10348090;28;20103;-63
2023/07/06 10:16:45;;;;;;;1.63;0.50;;;;;;;24.44;30.82;100341.28;10347449;28;20053;-63
2023/07/06 10:21:59;;;;;;;1.00;0.60;;;;;;;24.69;31.20;100343.34;10342878;28;20057;-62
2023/07/06 10:27:04;;;;;;;1.30;0.50;;;;;;;24.75;30.21;100350.63;10342643;28;20132;-62
2023/07/06 10:32:19;;;;;;;1.45;0.65;;;;;;;24.81;30.22;100329.91;10348183;28;20050;-63
2023/07/06 10:37:25;;;;;;;2.45;0.60;;;;;;;24.80;29.11;100339.09;10342371;28;20507;-64
2023/07/06 10:42:31;;;;;;;1.90;0.70;;;;;;;25.08;30.71;100343.41;10344742;28;20129;-61
2023/07/06 10:47:37;;;;;;;1.13;0.55;;;;;;;25.38;30.64;100336.31;10345063;28;20054;-62
2023/07/06 10:52:41;;;;;;;2.13;0.80;;;;;;;25.35;30.23;100331.31;10347154;28;20058;-62
2023/07/06 10:57:49;;;;;;;2.35;0.70;;;;;;;25.57;29.54;100339.97;10347164;28;20073;-62
2023/07/06 11:02:55;;;;;;;2.78;0.68;;;;;;;25.68;29.58;100334.88;10335724;28;20080;-62
2023/07/06 11:08:05;;;;;;;1.60;0.85;;;;;;;25.80;28.39;100333.09;10347003;28;20585;-63
2023/07/06 11:13:06;;;;;;;2.15;0.75;;;;;;;25.73;29.55;100337.75;10345088;28;20049;-64
2023/07/06 11:18:23;;;;;;;2.40;0.73;;;;;;;25.88;28.31;100342.88;10362330;28;20049;-63
2023/07/06 11:23:41;;;;;;;1.75;0.68;;;;;;;26.03;28.34;100332.53;10350506;28;20518;-63
2023/07/06 11:28:43;;;;;;;2.03;1.00;;;;;;;26.35;28.59;100337.88;10344922;28;20939;-63
2023/07/06 11:33:51;;;;;;;;;;;;;;;26.37;27.19;100332.19;10362652;28;20073;-63
2023/07/06 11:39:16;;;;;;;1.23;1.00;;;;;;;26.01;27.12;100333.78;10359054;28;19936;-62
2023/07/06 11:44:28;;;;;;;2.45;0.73;;;;;;;26.08;27.94;100342.75;10354543;28;20491;-62
2023/07/06 11:49:32;;;;;;;4.33;1.20;;;;;;;26.22;27.92;100329.81;10371465;28;20049;-63
2023/07/06 11:54:43;;;;;;;0.93;0.50;;;;;;;26.26;27.70;100314.69;10360396;28;20069;-63
2023/07/06 11:59:52;;;;;;;1.15;0.60;;;;;;;26.40;27.32;100299.00;10356251;28;20045;-63
2023/07/06 12:04:54;;;;;;;2.50;0.45;;;;;;;26.50;26.41;100314.81;10352488;28;20053;-64
2023/07/06 12:10:04;;;;;;;1.55;0.57;;;;;;;26.26;26.20;100303.75;10352287;28;20093;-62
2023/07/06 12:15:11;;;;;;;1.33;0.55;;;;;;;26.26;26.70;100310.03;10351884;28;20141;-63
2023/07/06 12:20:15;;;;;;;1.00;0.65;;;;;;;26.14;26.11;100303.66;10351019;28;20480;-64
2023/07/06 12:25:20;;;;;;;3.28;0.85;;;;;;;26.36;25.72;100304.06;10351826;28;20140;-63
2023/07/06 12:30:21;;;;;;;3.58;3.10;;;;;;;26.06;25.62;100263.88;10356113;28;20062;-63
2023/07/06 12:35:26;;;;;;;5.60;0.90;;;;;;;26.41;25.49;100282.38;10353526;28;20246;-64
2023/07/06 12:40:32;;;;;;;1.63;0.70;;;;;;;26.67;25.70;100294.06;10349871;28;20678;-63
2023/07/06 12:45:34;;;;;;;1.63;0.57;;;;;;;26.70;26.62;100279.16;10356319;28;20052;-62
2023/07/06 12:50:40;;;;;;;2.08;0.70;;;;;;;26.63;24.24;100276.44;10353197;28;20063;-63
2023/07/06 12:55:44;;;;;;;2.33;0.60;;;;;;;26.56;26.52;100271.09;10355298;28;20045;-64
2023/07/06 13:00:49;;;;;;;1.27;0.60;;;;;;;26.45;26.29;100269.97;10352328;28;20887;-63
2023/07/06 13:05:54;;;;;;;1.73;0.60;;;;;;;26.51;25.62;100270.09;10356043;28;20435;-63
2023/07/06 13:11:02;;;;;;;4.00;1.70;;;;;;;26.50;26.51;100263.81;10353463;28;20140;-63
2023/07/06 13:16:10;;;;;;;2.72;1.35;;;;;;;26.61;26.74;100257.56;10351539;28;20490;-62
2023/07/06 13:21:25;;;;;;;4.13;1.40;;;;;;;26.64;25.70;100253.56;10353278;28;20072;-63
2023/07/06 13:26:27;;;;;;;1.92;0.50;;;;;;;26.55;25.95;100258.50;10350158;28;20045;-63
2023/07/06 13:31:29;;;;;;;1.65;0.57;;;;;;;26.45;25.12;100259.06;10356230;28;20056;-63
2023/07/06 13:36:52;;;;;;;2.47;0.50;;;;;;;26.52;24.92;100258.94;10350324;28;20184;-62
2023/07/06 13:41:54;;;;;;;1.10;0.43;;;;;;;26.54;26.07;100256.00;10348111;28;20096;-62
2023/07/06 13:46:55;;;;;;;1.50;0.82;;;;;;;26.41;25.77;100249.66;10349342;28;20355;-63
2023/07/06 13:51:57;;;;;;;1.25;0.70;;;;;;;26.30;26.20;100264.03;10349832;28;20060;-63
2023/07/06 13:56:58;;;;;;;1.30;0.70;;;;;;;26.26;26.33;100247.28;10349108;28;20050;-63
2023/07/06 14:02:03;;;;;;;1.35;0.80;;;;;;;26.28;26.58;100228.78;10356458;28;20108;-61
2023/07/06 14:07:05;;;;;;;2.75;0.70;;;;;;;26.28;25.73;100233.44;10353028;28;20630;-63
2023/07/06 14:12:07;;;;;;;2.95;1.75;;;;;;;26.15;25.91;100237.13;10351726;28;20053;-63
2023/07/06 14:17:08;;;;;;;1.90;0.83;;;;;;;26.14;25.34;100248.25;10353999;28;21800;-64
2023/07/06 14:22:10;;;;;;;6.65;1.80;;;;;;;26.06;25.62;100236.63;10353483;28;20088;-63
2023/07/06 14:27:12;;;;;;;2.30;1.00;;;;;;;26.04;26.33;100241.44;10346950;28;20061;-63
2023/07/06 14:32:15;;;;;;;0.90;0.60;;;;;;;26.02;25.50;100248.22;10350576;28;20223;-63
2023/07/06 14:37:16;;;;;;;1.63;0.60;;;;;;;26.01;26.58;100241.06;10355581;28;20049;-62
2023/07/06 14:42:18;;;;;;;1.83;0.70;;;;;;;25.92;26.54;100232.31;10347784;28;20049;-63
2023/07/06 14:47:19;;;;;;;5.28;1.20;;;;;;;25.88;26.63;100239.28;10353086;28;20049;-63
2023/07/06 14:52:21;;;;;;;1.67;0.50;;;;;;;25.93;26.03;100234.00;10354890;28;20138;-62
2023/07/06 14:57:24;;;;;;;1.48;0.63;;;;;;;25.87;25.65;100251.25;10352340;28;20050;-62
2023/07/06 15:02:27;;;;;;;1.13;0.57;;;;;;;25.81;26.61;100222.19;10351341;28;20056;-63
2023/07/06 15:07:29;;;;;;;1.20;0.55;;;;;;;25.79;26.02;100232.44;10358681;28;20056;-64
2023/07/06 15:12:31;;;;;;;1.38;0.40;;;;;;;25.74;26.52;100225.78;10367510;28;20334;-61
2023/07/06 15:17:32;;;;;;;1.33;0.70;;;;;;;25.65;25.80;100229.03;10366344;28;20706;-64
2023/07/06 15:22:35;;;;;;;3.22;0.77;;;;;;;25.58;26.81;100238.09;10363001;28;20053;-66
2023/07/06 15:27:36;;;;;;;2.70;0.50;;;;;;;25.58;26.84;100221.75;10364278;28;20053;-62
2023/07/06 15:32:37;;;;;;;1.88;0.57;;;;;;;25.65;26.42;100229.84;10381623;28;20326;-62
2023/07/06 15:37:39;;;;;;;1.50;0.85;;;;;;;25.61;26.11;100223.16;10364613;28;20068;-63
2023/07/06 15:42:40;;;;;;;1.30;0.85;;;;;;;25.61;26.68;100215.00;10355223;28;20100;-62
2023/07/06 15:47:42;;;;;;;1.52;0.82;;;;;;;25.52;26.54;100197.25;10360802;28;20136;-62
2023/07/06 15:53:02;;;;;;;1.50;1.08;;;;;;;25.61;26.70;100203.25;10361880;28;20050;-61
2023/07/06 15:58:04;;;;;;;1.80;0.55;;;;;;;25.60;26.52;100186.09;10355164;28;20107;-64
2023/07/06 16:03:05;;;;;;;1.08;0.60;;;;;;;25.67;26.91;100200.50;10361173;28;20041;-63
2023/07/06 16:08:07;;;;;;;2.00;0.80;;;;;;;25.67;26.79;100186.88;10361999;28;20061;-62
2023/07/06 16:13:09;;;;;;;1.27;0.88;;;;;;;25.62;26.63;100189.41;10361653;28;20050;-63
2023/07/06 16:18:10;;;;;;;1.15;0.63;;;;;;;25.67;26.74;100203.22;10360168;28;20042;-63
2023/07/06 16:23:12;;;;;;;1.23;0.60;;;;;;;25.65;26.96;100188.97;10357201;28;20049;-62
2023/07/06 16:28:13;;;;;;;2.65;0.85;;;;;;;25.69;27.06;100201.09;10357071;28;20038;-62
2023/07/06 16:33:15;;;;;;;1.52;0.88;;;;;;;25.70;27.04;100205.50;10360659;28;21372;-67
2023/07/06 16:38:16;;;;;;;1.45;0.90;;;;;;;25.70;26.96;100207.38;10360762;28;20057;-62
2023/07/06 16:43:18;;;;;;;1.23;0.50;;;;;;;25.72;26.51;100206.09;10359452;28;20115;-63
2023/07/06 16:48:19;;;;;;;2.05;0.93;;;;;;;25.61;26.35;100204.09;10359156;28;20101;-63
2023/07/06 16:53:23;;;;;;;2.75;0.90;;;;;;;25.52;26.61;100199.97;10356708;28;20042;-63
2023/07/06 16:58:24;;;;;;;2.45;0.70;;;;;;;25.47;26.85;100202.56;10351755;28;20108;-64
2023/07/06 17:03:26;;;;;;;2.15;0.70;;;;;;;25.47;27.01;100208.00;10354313;28;20057;-64
2023/07/06 17:08:30;;;;;;;1.15;0.70;;;;;;;25.51;27.40;100206.50;10357121;28;20083;-64
2023/07/06 17:13:32;;;;;;;2.27;0.80;;;;;;;25.48;27.01;100209.69;10345271;28;20095;-66
2023/07/06 17:18:35;;;;;;;1.13;0.80;;;;;;;25.39;26.82;100211.84;10346862;28;20060;-65
2023/07/06 17:23:36;;;;;;;1.67;0.75;;;;;;;25.38;27.48;100216.44;10341164;28;20594;-64
2023/07/06 17:28:38;;;;;;;1.60;0.80;;;;;;;25.39;27.28;100222.75;10340355;28;20045;-65
2023/07/06 17:33:39;;;;;;;1.60;0.63;;;;;;;25.40;27.84;100214.34;10345233;28;20758;-64
2023/07/06 17:38:41;;;;;;;0.63;0.43;;;;;;;25.18;27.67;100183.91;10341785;28;20132;-67
2023/07/06 17:43:42;;;;;;;1.58;0.82;;;;;;;25.43;27.83;100218.50;10341271;28;20701;-65
2023/07/06 17:48:43;;;;;;;1.75;0.57;;;;;;;25.17;28.36;100198.56;10340520;28;20074;-66
2023/07/06 17:53:46;;;;;;;1.00;0.60;;;;;;;25.32;27.59;100214.63;10339377;28;20436;-66
2023/07/06 17:58:47;;;;;;;1.30;0.80;;;;;;;25.27;27.75;100219.88;10338456;28;20073;-65
2023/07/06 18:03:49;;;;;;;2.38;1.05;;;;;;;25.26;28.07;100215.47;10337814;28;20397;-65
2023/07/06 18:08:50;;;;;;;3.55;1.40;;;;;;;25.19;28.24;100211.97;10341239;28;20088;-65
2023/07/06 18:13:52;;;;;;;3.58;0.88;;;;;;;25.23;28.08;100229.53;10335344;28;20059;-64
2023/07/06 18:18:53;;;;;;;1.65;0.90;;;;;;;25.19;28.00;100240.06;10338326;28;20068;-64
2023/07/06 18:23:54;;;;;;;1.63;0.50;;;;;;;25.13;28.17;100240.94;10340326;28;20142;-66
2023/07/06 18:28:56;;;;;;;1.35;0.77;;;;;;;25.11;29.08;100239.47;10336080;28;20176;-64
2023/07/06 18:33:58;;;;;;;3.05;0.80;;;;;;;25.02;28.86;100241.63;10339193;28;20057;-65
2023/07/06 18:38:59;;;;;;;1.40;1.20;;;;;;;24.98;29.03;100248.53;10334908;28;20434;-65
2023/07/06 18:44:01;;;;;;;1.52;0.77;;;;;;;24.84;29.27;100253.25;10336941;28;20045;-64
2023/07/06 18:49:03;;;;;;;1.13;0.63;;;;;;;24.78;29.82;100248.66;10337379;28;20050;-63
2023/07/06 18:54:04;;;;;;;1.80;0.70;;;;;;;24.76;30.26;100250.78;10331785;28;20156;-65
2023/07/06 18:59:06;;;;;;;1.67;0.70;;;;;;;24.62;29.95;100244.56;10336722;28;20077;-64
2023/07/06 19:04:07;;;;;;;1.23;0.52;;;;;;;24.52;30.04;100253.16;10341770;28;20585;-65
2023/07/06 19:09:09;;;;;;;1.40;0.85;;;;;;;24.56;30.55;100270.72;10340670;28;20104;-66
2023/07/06 19:14:10;;;;;;;1.42;0.60;;;;;;;24.49;30.73;100272.63;10341312;28;20067;-65
2023/07/06 19:19:12;;;;;;;2.63;0.98;;;;;;;24.44;30.74;100276.00;10337946;28;20049;-64
2023/07/06 19:24:16;;;;;;;1.17;0.47;;;;;;;24.39;30.76;100283.94;10335527;28;20058;-65
2023/07/06 19:29:20;;;;;;;1.77;0.70;;;;;;;24.27;31.11;100275.63;10340542;28;20076;-64
2023/07/06 19:34:21;;;;;;;1.40;0.68;;;;;;;24.24;31.41;100286.09;10334048;28;20215;-64
2023/07/06 19:39:23;;;;;;;3.80;0.70;;;;;;;24.09;31.38;100276.28;10332380;28;20141;-65
2023/07/06 19:44:25;;;;;;;2.53;0.65;;;;;;;23.97;31.58;100292.41;10337082;28;20558;-64
2023/07/06 19:49:26;;;;;;;1.25;0.60;;;;;;;23.90;31.54;100297.03;10339386;28;20049;-64
2023/07/06 19:54:27;;;;;;;3.45;0.85;;;;;;;23.87;32.04;100311.03;10339970;28;20149;-64
2023/07/06 19:59:29;;;;;;;2.50;0.68;;;;;;;23.65;31.76;100303.03;10343610;28;20387;-64
2023/07/06 20:04:31;;;;;;;2.33;0.57;;;;;;;23.60;31.58;100321.88;10348906;28;20057;-63
2023/07/06 20:09:33;;;;;;;0.82;0.55;;;;;;;23.53;32.42;100321.00;10345187;28;20064;-64
2023/07/06 20:14:34;;;;;;;2.75;0.70;;;;;;;23.56;33.26;100336.06;10344766;28;20133;-64
2023/07/06 20:19:35;;;;;;;2.75;1.02;;;;;;;23.47;32.29;100335.44;10338252;28;20057;-65
2023/07/06 20:24:37;;;;;;;4.63;1.38;;;;;;;23.33;32.85;100341.88;10345790;28;20041;-65
2023/07/06 20:29:38;;;;;;;1.58;1.15;;;;;;;23.27;33.37;100341.66;10344176;28;20060;-63
2023/07/06 20:34:40;;;;;;;4.57;1.48;;;;;;;23.25;33.62;100338.28;10344595;28;20116;-64
2023/07/06 20:39:44;;;;;;;2.20;1.30;;;;;;;23.19;33.74;100339.13;10346212;28;20176;-64
2023/07/06 20:44:46;;;;;;;2.15;0.77;;;;;;;23.16;33.89;100336.81;10347576;28;20168;-66
2023/07/06 20:49:48;;;;;;;3.63;2.65;;;;;;;23.19;33.58;100349.16;10347953;28;20052;-64
2023/07/06 20:54:51;;;;;;;2.13;0.80;;;;;;;23.14;33.89;100352.47;10346546;28;20057;-66
2023/07/06 20:59:52;;;;;;;1.58;0.82;;;;;;;23.13;34.18;100361.66;10347076;28;20421;-63
2023/07/06 21:04:54;;;;;;;1.17;0.73;;;;;;;22.87;33.98;100336.06;10344083;28;20058;-66
2023/07/06 21:09:55;;;;;;;2.30;0.93;;;;;;;23.00;34.75;100372.44;10343694;28;20057;-63
2023/07/06 21:14:57;;;;;;;1.13;0.77;;;;;;;22.94;34.54;100368.66;10357021;28;20473;-62
2023/07/06 21:19:58;;;;;;;3.05;1.10;;;;;;;22.86;35.07;100368.81;10353141;28;20069;-63
2023/07/06 21:25:00;;;;;;;4.13;0.50;;;;;;;22.85;35.09;100369.84;10354088;28;20062;-62
2023/07/06 21:30:03;;;;;;;1.50;0.57;;;;;;;22.80;34.85;100377.78;10347347;28;20480;-61
2023/07/06 21:35:05;;;;;;;1.15;0.60;;;;;;;22.81;34.93;100384.88;10351609;28;20326;-60
2023/07/06 21:40:07;;;;;;;1.10;0.65;;;;;;;22.65;34.80;100383.31;10354015;28;20080;-62
2023/07/06 21:45:09;;;;;;;2.65;0.70;;;;;;;22.49;35.24;100369.06;10360011;28;20254;-62
2023/07/06 21:50:10;;;;;;;1.00;0.60;;;;;;;22.59;35.32;100383.09;10355996;28;20084;-61
2023/07/06 21:55:11;;;;;;;1.15;0.63;;;;;;;22.51;35.04;100374.28;10353238;28;20581;-61
2023/07/06 22:00:13;;;;;;;1.65;0.95;;;;;;;22.54;34.92;100399.13;10354823;28;20348;-62
2023/07/06 22:05:15;;;;;;;3.00;0.85;;;;;;;22.40;35.71;100389.22;10359616;28;20091;-62
2023/07/06 22:10:17;;;;;;;1.83;0.60;;;;;;;22.43;35.96;100405.09;10357869;28;20157;-62
2023/07/06 22:15:18;;;;;;;2.58;0.82;;;;;;;22.31;35.63;100391.25;10356256;28;20080;-61
2023/07/06 22:20:34;;;;;;;1.80;0.80;;;;;;;22.33;36.14;100404.59;10355398;28;20684;-61
2023/07/06 22:25:36;;;;;;;0.82;0.70;;;;;;;22.25;36.12;100398.25;10370496;28;20140;-62
2023/07/06 22:30:37;;;;;;;1.30;0.90;;;;;;;22.22;36.35;100405.97;10354850;28;20672;-63
2023/07/06 22:35:39;;;;;;;1.25;0.57;;;;;;;22.01;36.64;100391.41;10353068;28;20586;-62
2023/07/06 22:40:40;;;;;;;2.78;0.80;;;;;;;22.08;36.55;100418.53;10354503;28;20045;-62
2023/07/06 22:45:42;;;;;;;1.33;0.73;;;;;;;21.98;36.89;100418.03;10353191;28;20057;-62
2023/07/06 22:50:44;;;;;;;1.77;0.45;;;;;;;21.84;36.87;100407.09;10351395;28;20156;-63
2023/07/06 22:55:49;;;;;;;2.58;0.80;;;;;;;21.83;37.02;100413.53;10354152;28;20499;-62
2023/07/06 23:00:50;;;;;;;1.27;0.70;;;;;;;21.78;37.09;100407.00;10353842;28;20447;-62
2023/07/06 23:05:59;;;;;;;1.98;0.93;;;;;;;21.77;37.10;100414.31;10351664;28;20575;-62
2023/07/06 23:11:03;;;;;;;2.88;0.70;;;;;;;21.73;37.44;100414.91;10352536;28;20046;-62
2023/07/06 23:16:04;;;;;;;1.75;0.60;;;;;;;21.66;37.52;100418.38;10349494;28;20084;-62